Time;durP1;ratioP1;P1;durP2;ratioP2;P2;SDS_P1;SDS_P2;PMS_P1;PMS_P2;Temp;Humidity;BMP_temperature;BMP_pressure;BME280_temperature;BME280_humidity;BME280_pressure;Samples;Min_cycle;Max_cycle;Signal;HPM_P1;HPM_P2
2022/09/10 00:00:14;;;;;;;11.12;4.55;;;;;;;17.93;83.02;100225.04;3539981;81;99140;-87
2022/09/10 00:05:16;;;;;;;9.40;4.50;;;;;;;17.95;83.05;100228.97;3552528;81;99188;-87
2022/09/10 00:10:17;;;;;;;11.25;4.72;;;;;;;17.93;83.12;100224.41;3544664;81;99067;-86
2022/09/10 00:15:19;;;;;;;10.63;5.13;;;;;;;17.95;83.14;100219.81;3545769;81;99143;-87
2022/09/10 00:20:20;;;;;;;8.65;5.35;;;;;;;17.96;83.37;100220.78;3545456;81;99135;-87
2022/09/10 00:25:21;;;;;;;12.00;7.67;;;;;;;17.91;83.40;100233.81;3533786;82;99079;-87
2022/09/10 00:30:22;;;;;;;13.33;8.50;;;;;;;17.86;83.72;100237.70;3529426;80;99158;-86
2022/09/10 00:35:23;;;;;;;13.75;8.85;;;;;;;17.73;84.28;100235.41;3524210;81;99109;-87
2022/09/10 00:40:24;;;;;;;12.63;8.80;;;;;;;17.69;84.53;100232.70;3531631;81;99122;-87
2022/09/10 00:45:32;;;;;;;13.00;7.57;;;;;;;17.67;84.86;100233.75;3557323;81;99036;-84
2022/09/10 00:50:41;;;;;;;12.60;8.08;;;;;;;17.63;84.59;100226.67;3536992;79;99077;-87
2022/09/10 00:55:49;;;;;;;11.57;7.07;;;;;;;17.64;84.70;100231.81;3531072;81;99196;-87
2022/09/10 01:00:54;;;;;;;13.28;6.80;;;;;;;17.67;84.83;100224.61;3540290;81;99101;-87
2022/09/10 01:05:56;;;;;;;11.05;6.80;;;;;;;17.70;84.64;100226.52;3549793;81;99003;-87
2022/09/10 01:11:25;;;;;;;9.35;4.87;;;;;;;17.72;84.60;100236.63;3523295;81;99137;-86
2022/09/10 01:17:08;;;;;;;8.33;4.05;;;;;;;17.65;84.66;100234.77;3540785;81;98936;-86
2022/09/10 01:22:27;;;;;;;9.50;3.42;;;;;;;17.61;84.67;100230.50;3527276;82;98842;-87
2022/09/10 01:27:38;;;;;;;7.92;3.75;;;;;;;17.58;84.77;100223.80;3535390;81;99058;-87
2022/09/10 01:33:03;;;;;;;6.43;2.83;;;;;;;17.57;84.56;100229.78;3521628;81;99542;-88
2022/09/10 01:38:15;;;;;;;3.58;1.60;;;;;;;17.56;84.26;100222.65;3531712;81;99009;-87
2022/09/10 01:43:16;;;;;;;5.15;1.72;;;;;;;17.34;84.80;100228.43;3533559;80;98894;-88
2022/09/10 01:48:34;;;;;;;2.73;1.30;;;;;;;17.12;85.25;100225.25;3526100;81;98776;-88
2022/09/10 01:53:58;;;;;;;4.12;1.37;;;;;;;16.97;85.66;100239.84;3542892;81;99023;-86
2022/09/10 01:59:21;;;;;;;2.67;1.10;;;;;;;16.84;86.37;100244.45;3556079;81;98714;-85
2022/09/10 02:04:24;;;;;;;6.77;1.90;;;;;;;16.71;87.73;100240.10;3527828;81;98526;-86
2022/09/10 02:09:26;;;;;;;3.77;1.87;;;;;;;16.60;88.55;100241.47;3548814;81;98990;-86
2022/09/10 02:14:27;;;;;;;5.33;2.08;;;;;;;16.60;89.27;100236.71;3539158;81;99139;-86
2022/09/10 02:19:28;;;;;;;3.90;2.17;;;;;;;16.49;90.24;100235.30;3526428;81;98908;-86
2022/09/10 02:24:29;;;;;;;7.35;2.22;;;;;;;16.42;91.30;100239.59;3516695;82;99137;-87
2022/09/10 02:29:30;;;;;;;7.07;2.70;;;;;;;16.40;91.17;100244.17;3528028;81;99067;-86
2022/09/10 02:34:31;;;;;;;7.67;2.17;;;;;;;16.47;90.86;100237.73;3522277;81;98885;-87
2022/09/10 02:39:34;;;;;;;4.28;2.08;;;;;;;16.60;90.38;100239.49;3536548;81;99016;-87
2022/09/10 02:44:36;;;;;;;4.70;2.40;;;;;;;16.72;89.78;100238.09;3538759;81;99057;-86
2022/09/10 02:49:37;;;;;;;4.00;2.40;;;;;;;16.80;89.46;100235.39;3559321;81;99027;-86
2022/09/10 02:54:39;;;;;;;5.33;2.47;;;;;;;16.86;89.35;100233.69;3550346;80;98918;-89
2022/09/10 02:59:40;;;;;;;7.13;3.33;;;;;;;16.95;88.96;100229.77;3539213;81;105448;-91
2022/09/10 03:04:41;;;;;;;5.33;2.20;;;;;;;16.93;89.09;100223.83;3532928;81;99794;-92
2022/09/10 03:09:43;;;;;;;7.65;2.95;;;;;;;16.97;88.91;100217.02;3553673;81;98945;-92
2022/09/10 03:14:46;;;;;;;7.62;3.00;;;;;;;17.01;88.78;100217.71;3551449;81;99442;-92
2022/09/10 03:19:47;;;;;;;4.83;2.55;;;;;;;17.05;88.88;100218.44;3524495;81;99125;-92
2022/09/10 03:24:48;;;;;;;6.77;2.37;;;;;;;17.11;88.64;100225.70;3546626;81;99375;-92
2022/09/10 03:29:50;;;;;;;4.08;1.90;;;;;;;17.14;88.10;100243.70;3511075;81;99465;-91
2022/09/10 03:34:50;;;;;;;5.87;2.50;;;;;;;17.12;87.96;100254.45;3552333;81;98987;-89
2022/09/10 03:39:52;;;;;;;9.15;3.08;;;;;;;17.12;88.19;100259.24;3534006;81;99451;-86
2022/09/10 03:44:52;;;;;;;7.03;2.65;;;;;;;17.04;88.75;100253.02;3517879;81;98877;-82
2022/09/10 03:49:53;;;;;;;7.42;2.75;;;;;;;16.91;90.67;100253.46;3537762;80;98969;-82
2022/09/10 03:54:55;;;;;;;7.40;2.30;;;;;;;16.68;91.50;100238.16;3549707;81;98777;-82
2022/09/10 03:59:56;;;;;;;5.10;2.20;;;;;;;16.62;91.48;100240.47;3526499;81;98966;-81
2022/09/10 04:04:56;;;;;;;7.65;3.00;;;;;;;16.60;91.82;100242.27;3563997;80;99110;-81
2022/09/10 04:09:57;;;;;;;9.80;3.03;;;;;;;16.63;91.59;100240.02;3560337;81;98820;-81
2022/09/10 04:15:00;;;;;;;7.95;3.22;;;;;;;16.69;91.35;100238.36;3553549;80;98990;-81
2022/09/10 04:20:02;;;;;;;5.80;2.40;;;;;;;16.72;91.21;100238.09;3551904;81;98833;-81
2022/09/10 04:25:03;;;;;;;7.58;2.80;;;;;;;16.71;90.99;100242.88;3543312;81;98905;-82
2022/09/10 04:30:05;;;;;;;5.97;3.02;;;;;;;16.75;91.11;100245.59;3558922;81;121176;-82
2022/09/10 04:35:08;;;;;;;8.70;3.22;;;;;;;16.73;91.00;100242.47;3551433;81;99381;-81
2022/09/10 04:40:10;;;;;;;7.97;3.45;;;;;;;16.73;91.89;100241.08;3529521;81;98957;-83
2022/09/10 04:45:11;;;;;;;6.95;3.47;;;;;;;16.63;92.98;100243.42;3544332;81;99006;-83
2022/09/10 04:50:15;;;;;;;5.28;3.02;;;;;;;16.48;93.76;100226.20;3520412;82;98917;-83
2022/09/10 04:55:16;;;;;;;5.62;3.25;;;;;;;16.42;93.98;100226.50;3519965;82;100094;-82
2022/09/10 05:00:17;;;;;;;6.10;3.10;;;;;;;16.40;94.10;100223.34;3525155;81;99091;-82
2022/09/10 05:05:18;;;;;;;8.53;3.15;;;;;;;16.44;93.72;100217.72;3519564;81;98834;-82
2022/09/10 05:10:20;;;;;;;6.17;2.70;;;;;;;16.49;93.32;100229.16;3528641;82;98967;-82
2022/09/10 05:15:21;;;;;;;7.42;2.90;;;;;;;16.50;93.38;100225.16;3530008;82;98868;-82
2022/09/10 05:20:22;;;;;;;4.93;2.63;;;;;;;16.54;92.86;100223.72;3530061;82;99053;-83
2022/09/10 05:25:23;;;;;;;5.00;2.53;;;;;;;16.58;92.68;100223.83;3515460;82;99009;-83
2022/09/10 05:30:24;;;;;;;7.23;4.27;;;;;;;16.61;92.56;100222.20;3532757;82;98742;-82
2022/09/10 05:35:25;;;;;;;4.80;2.80;;;;;;;16.57;92.88;100219.48;3532386;82;99019;-82
2022/09/10 05:40:27;;;;;;;4.65;2.50;;;;;;;16.58;92.88;100216.88;3526575;82;107062;-82
2022/09/10 05:45:28;;;;;;;5.70;2.60;;;;;;;16.62;92.79;100208.52;3527837;82;99041;-82
2022/09/10 05:50:30;;;;;;;4.45;2.75;;;;;;;16.69;92.82;100205.61;3537611;81;98925;-82
2022/09/10 05:55:32;;;;;;;4.58;1.92;;;;;;;16.67;92.50;100203.86;3556356;81;99026;-83
2022/09/10 06:00:33;;;;;;;3.60;2.10;;;;;;;16.71;92.34;100199.00;3571626;81;98940;-83
2022/09/10 06:05:34;;;;;;;4.40;2.17;;;;;;;16.72;92.25;100197.20;3558367;81;98695;-83
2022/09/10 06:10:35;;;;;;;4.45;1.95;;;;;;;16.80;92.27;100200.05;3567206;81;98639;-84
2022/09/10 06:15:36;;;;;;;4.08;2.33;;;;;;;16.86;91.96;100204.50;3573507;81;98749;-84
2022/09/10 06:20:37;;;;;;;6.40;2.50;;;;;;;16.92;91.66;100210.55;3566476;81;99218;-84
2022/09/10 06:25:38;;;;;;;6.25;2.90;;;;;;;16.97;91.67;100205.09;3553277;81;98979;-84
2022/09/10 06:30:39;;;;;;;7.00;2.83;;;;;;;17.03;91.56;100209.75;3561411;81;98798;-84
2022/09/10 06:35:40;;;;;;;6.62;2.98;;;;;;;17.08;91.76;100216.80;3564728;81;98494;-84
2022/09/10 06:40:54;;;;;;;7.78;3.50;;;;;;;17.07;91.46;100218.79;3571004;81;115169;-83
2022/09/10 06:45:55;;;;;;;5.93;2.80;;;;;;;17.13;91.36;100218.50;3576524;81;99188;-83
2022/09/10 06:50:58;;;;;;;6.50;2.70;;;;;;;17.16;91.37;100218.27;3576641;81;98949;-82
2022/09/10 06:56:01;;;;;;;7.65;2.80;;;;;;;17.14;91.29;100218.68;3566876;81;99026;-82
2022/09/10 07:01:10;;;;;;;7.47;2.55;;;;;;;17.22;91.34;100227.05;3573073;81;99027;-82
2022/09/10 07:06:15;;;;;;;7.08;2.75;;;;;;;17.27;91.12;100232.12;3578493;81;98780;-82
2022/09/10 07:11:17;;;;;;;5.03;2.40;;;;;;;17.36;91.26;100239.91;3573313;81;98962;-82
2022/09/10 07:16:19;;;;;;;4.75;2.80;;;;;;;17.39;91.54;100234.92;3559297;81;98777;-82
2022/09/10 07:21:22;;;;;;;7.25;3.40;;;;;;;17.42;91.77;100238.22;3564096;81;98863;-82
2022/09/10 07:26:24;;;;;;;5.22;2.40;;;;;;;17.50;91.54;100225.13;3567017;81;98852;-82
2022/09/10 07:31:34;;;;;;;5.78;2.70;;;;;;;17.39;91.81;100207.87;3574263;81;98814;-83
2022/09/10 07:36:35;;;;;;;5.80;3.30;;;;;;;17.54;91.66;100225.85;3560579;81;98903;-84
2022/09/10 07:41:36;;;;;;;7.20;3.40;;;;;;;17.54;91.82;100223.70;3553844;81;98831;-84
2022/09/10 07:46:37;;;;;;;5.62;3.17;;;;;;;17.63;91.62;100228.86;3577399;81;98808;-84
2022/09/10 07:51:38;;;;;;;5.47;2.53;;;;;;;17.68;91.37;100224.77;3570707;80;98990;-85
2022/09/10 07:56:39;;;;;;;6.45;2.65;;;;;;;17.72;91.21;100229.05;3549651;81;98749;-85
2022/09/10 08:01:40;;;;;;;4.05;2.47;;;;;;;17.80;90.98;100226.90;3551926;80;98719;-85
2022/09/10 08:06:41;;;;;;;5.05;2.72;;;;;;;17.75;91.01;100226.80;3549922;81;98849;-86
2022/09/10 08:11:42;;;;;;;5.25;2.60;;;;;;;17.82;90.84;100231.45;3539084;81;98993;-86
2022/09/10 08:16:43;;;;;;;3.87;2.20;;;;;;;17.89;90.73;100227.11;3560920;81;99166;-87
2022/09/10 08:21:46;;;;;;;3.60;2.23;;;;;;;17.86;90.63;100218.22;3563495;81;98834;-88
2022/09/10 08:26:48;;;;;;;3.72;2.27;;;;;;;17.90;90.63;100218.33;3544981;81;98621;-88
2022/09/10 08:31:48;;;;;;;4.33;2.22;;;;;;;17.99;90.42;100223.31;3547489;81;98734;-87
2022/09/10 08:36:49;;;;;;;3.77;2.27;;;;;;;18.07;89.85;100228.89;3556424;81;98709;-88
2022/09/10 08:41:58;;;;;;;5.40;3.27;;;;;;;18.17;89.88;100231.45;3552756;81;98836;-87
2022/09/10 08:47:28;;;;;;;4.37;2.62;;;;;;;18.23;89.73;100233.89;3542912;81;98865;-88
2022/09/10 08:52:55;;;;;;;7.55;3.15;;;;;;;18.30;89.01;100243.47;3555342;81;98869;-87
2022/09/10 08:58:12;;;;;;;9.10;3.50;;;;;;;18.39;89.07;100251.27;3517786;81;98808;-88
2022/09/10 09:03:39;;;;;;;6.53;2.83;;;;;;;18.43;88.95;100249.95;3524601;81;99183;-87
2022/09/10 09:08:47;;;;;;;6.12;3.37;;;;;;;18.40;88.46;100252.23;3500375;82;98852;-86
2022/09/10 09:14:14;;;;;;;5.80;2.90;;;;;;;18.41;88.51;100251.00;3512889;82;98913;-86
2022/09/10 09:19:27;;;;;;;4.50;2.45;;;;;;;18.46;88.27;100247.70;3515630;82;98865;-86
2022/09/10 09:24:59;;;;;;;4.85;2.42;;;;;;;18.55;88.11;100249.88;3511763;82;99972;-86
2022/09/10 09:30:08;;;;;;;5.42;3.00;;;;;;;18.61;87.48;100239.18;3525375;82;98827;-87
2022/09/10 09:35:39;;;;;;;8.90;4.55;;;;;;;18.70;87.51;100238.56;3521295;82;98650;-86
2022/09/10 09:40:48;;;;;;;5.55;2.85;;;;;;;18.70;87.19;100249.72;3536369;82;98756;-88
2022/09/10 09:45:52;;;;;;;4.53;2.67;;;;;;;18.76;86.93;100241.80;3534345;82;98886;-88
2022/09/10 09:50:58;;;;;;;5.03;1.98;;;;;;;18.81;86.81;100247.45;3535780;82;98874;-90
2022/09/10 09:56:05;;;;;;;4.97;1.80;;;;;;;18.86;86.84;100253.90;3558188;81;98865;-90
2022/09/10 10:01:15;;;;;;;4.70;2.17;;;;;;;18.75;86.42;100250.59;3580462;81;99259;-91
2022/09/10 10:06:19;;;;;;;3.70;1.85;;;;;;;18.67;86.21;100243.01;3564460;81;98994;-89
2022/09/10 10:11:21;;;;;;;10.68;4.80;;;;;;;18.73;86.10;100242.66;3561284;81;98724;-89
2022/09/10 10:16:34;;;;;;;4.17;2.00;;;;;;;18.63;85.89;100240.91;3575266;81;99095;-90
2022/09/10 10:21:35;;;;;;;10.07;4.30;;;;;;;18.61;86.19;100239.78;3566080;81;98814;-89
2022/09/10 10:26:37;;;;;;;7.15;3.37;;;;;;;18.60;86.28;100243.80;3570066;81;99087;-92
2022/09/10 10:31:42;;;;;;;4.87;2.40;;;;;;;18.70;86.15;100242.12;3573312;81;98951;-91
2022/09/10 10:37:06;;;;;;;4.22;2.37;;;;;;;18.72;86.16;100239.70;3572186;81;98707;-91
2022/09/10 10:42:40;;;;;;;4.58;2.60;;;;;;;18.81;86.41;100241.24;3547771;81;99219;-94
2022/09/10 10:47:53;;;;;;;4.00;2.10;;;;;;;18.97;86.68;100239.84;3540035;81;98809;-94
2022/09/10 10:53:15;;;;;;;4.85;1.77;;;;;;;19.04;86.01;100246.64;3559506;81;98730;-94
2022/09/10 10:58:34;;;;;;;3.35;1.90;;;;;;;19.10;85.59;100248.28;3551025;81;98773;-93
2022/09/10 11:04:00;;;;;;;2.97;1.60;;;;;;;19.12;85.61;100249.41;3537229;82;98844;-93
2022/09/10 11:09:24;;;;;;;4.58;2.00;;;;;;;19.25;85.29;100250.30;3545288;81;98964;-94
2022/09/10 11:14:47;;;;;;;2.25;1.57;;;;;;;19.34;84.10;100253.86;3564078;81;98889;-94
2022/09/10 11:20:14;;;;;;;5.08;2.22;;;;;;;19.34;84.10;100253.86;3551717;81;99002;-92
2022/09/10 11:25:23;;;;;;;3.72;1.50;;;;;;;19.32;83.38;100254.89;3544496;81;98849;-94
2022/09/10 11:30:25;;;;;;;3.02;1.35;;;;;;;19.24;83.21;100246.55;3545592;81;98999;-93
2022/09/10 11:35:31;;;;;;;1.80;1.40;;;;;;;19.24;83.32;100236.16;3552299;81;98743;-91
2022/09/10 11:40:43;;;;;;;3.07;1.50;;;;;;;19.39;83.99;100232.36;3561072;81;98539;-95
2022/09/10 11:45:55;;;;;;;1.97;1.50;;;;;;;19.49;83.39;100220.91;3556808;81;98929;-93
2022/09/10 11:51:14;;;;;;;2.08;1.40;;;;;;;19.68;83.59;100213.59;3558009;82;98873;-95
2022/09/10 11:56:51;;;;;;;2.98;1.98;;;;;;;19.80;82.84;100210.03;3536765;81;98762;-95
2022/09/10 12:02:41;;;;;;;7.22;3.12;;;;;;;19.82;82.06;100206.17;3522023;82;98938;-94
2022/09/10 12:08:22;;;;;;;14.58;8.00;;;;;;;19.85;82.22;100209.48;3528134;82;98825;-94
2022/09/10 12:13:23;;;;;;;4.83;2.42;;;;;;;19.95;81.92;100200.78;3515321;82;98799;-95
2022/09/10 12:18:38;;;;;;;2.95;1.80;;;;;;;20.17;82.21;100202.34;3535571;82;98938;-94
2022/09/10 12:23:41;;;;;;;2.33;1.73;;;;;;;20.31;81.01;100191.49;3538539;81;98817;-95
2022/09/10 12:28:54;;;;;;;3.02;1.47;;;;;;;20.38;80.46;100187.70;3522181;82;98998;-94
2022/09/10 12:34:15;;;;;;;5.03;1.92;;;;;;;20.38;80.11;100190.48;3524878;81;99557;-94
2022/09/10 12:39:26;;;;;;;2.95;2.15;;;;;;;20.36;79.59;100189.53;3536492;81;99706;-93
2022/09/10 12:44:35;;;;;;;2.30;1.50;;;;;;;20.46;79.80;100182.02;3530535;82;99033;-90
2022/09/10 12:49:56;;;;;;;3.40;1.47;;;;;;;20.33;78.97;100179.23;3527801;82;98655;-91
2022/09/10 12:55:05;;;;;;;1.92;1.32;;;;;;;20.26;79.17;100173.88;3521251;82;98739;-91
2022/09/10 13:00:26;;;;;;;3.08;1.52;;;;;;;20.30;79.05;100172.37;3512290;81;98855;-92
2022/09/10 13:05:53;;;;;;;4.40;1.52;;;;;;;20.40;78.92;100172.03;3525218;82;98990;-88
2022/09/10 13:11:03;;;;;;;3.50;1.57;;;;;;;20.33;78.78;100168.05;3513216;81;98822;-90
2022/09/10 13:16:10;;;;;;;4.42;1.60;;;;;;;20.36;78.50;100175.55;3503755;82;98922;-91
2022/09/10 13:21:29;;;;;;;3.60;1.47;;;;;;;20.46;78.70;100163.84;3535340;82;98849;-91
2022/09/10 13:26:38;;;;;;;3.92;1.50;;;;;;;20.52;78.39;100164.23;3531082;82;99217;-92
2022/09/10 13:31:43;;;;;;;3.67;1.72;;;;;;;20.64;78.09;100161.23;3524627;82;98872;-91
2022/09/10 13:37:25;;;;;;;2.63;1.70;;;;;;;20.64;78.09;100161.23;3527563;81;99018;-90
2022/09/10 13:42:38;;;;;;;2.47;1.50;;;;;;;20.65;77.64;100155.19;3507544;82;98912;-86
2022/09/10 13:47:53;;;;;;;3.08;1.60;;;;;;;20.65;77.57;100149.60;3528162;81;98949;-90
2022/09/10 13:52:58;;;;;;;3.60;1.70;;;;;;;20.82;77.13;100143.24;3532049;82;99038;-90
2022/09/10 13:58:27;;;;;;;1.92;1.35;;;;;;;20.83;76.27;100151.80;3490538;81;99875;-90
2022/09/10 14:03:33;;;;;;;3.50;1.80;;;;;;;20.95;77.05;100156.58;3497022;82;98775;-92
2022/09/10 14:08:48;;;;;;;1.57;0.97;;;;;;;21.04;76.72;100146.88;3529492;82;98627;-90
2022/09/10 14:13:56;;;;;;;1.85;1.10;;;;;;;21.08;76.62;100142.70;3506303;82;99019;-90
2022/09/10 14:19:01;;;;;;;2.12;1.30;;;;;;;21.11;76.43;100141.81;3507218;82;98824;-89
2022/09/10 14:24:03;;;;;;;1.27;0.90;;;;;;;21.08;75.71;100148.94;3514068;82;98797;-90
2022/09/10 14:29:24;;;;;;;3.62;1.20;;;;;;;20.99;74.79;100136.27;3507941;82;98911;-89
2022/09/10 14:34:35;;;;;;;2.52;1.50;;;;;;;20.97;74.68;100131.12;3526556;82;98888;-89
2022/09/10 14:39:41;;;;;;;2.08;1.10;;;;;;;21.07;74.59;100116.57;3530163;82;99016;-88
2022/09/10 14:44:42;;;;;;;4.65;1.50;;;;;;;21.00;74.22;100112.64;3527819;81;98900;-88
2022/09/10 14:49:46;;;;;;;2.02;1.10;;;;;;;20.84;73.66;100116.38;3527967;82;98968;-89
2022/09/10 14:54:47;;;;;;;2.05;1.00;;;;;;;20.71;73.66;100112.06;3520265;81;98941;-89
2022/09/10 14:59:48;;;;;;;2.37;1.10;;;;;;;20.64;74.25;100118.68;3533428;82;98778;-89
2022/09/10 15:04:53;;;;;;;2.70;1.27;;;;;;;20.55;74.57;100119.98;3528038;82;98968;-88
2022/09/10 15:09:53;;;;;;;5.05;1.82;;;;;;;20.64;74.89;100115.09;3511686;82;98869;-88
2022/09/10 15:14:56;;;;;;;3.62;1.60;;;;;;;20.68;75.25;100122.14;3498838;82;98948;-87
2022/09/10 15:19:57;;;;;;;2.60;1.20;;;;;;;20.59;76.18;100119.25;3533726;82;98760;-88
2022/09/10 15:24:58;;;;;;;3.37;1.40;;;;;;;20.44;76.21;100118.17;3533709;82;98804;-88
2022/09/10 15:29:59;;;;;;;3.08;1.15;;;;;;;20.44;76.72;100118.80;3521825;82;99007;-87
2022/09/10 15:35:02;;;;;;;3.05;1.07;;;;;;;20.47;76.93;100119.28;3531660;81;98874;-88
2022/09/10 15:40:03;;;;;;;3.70;1.20;;;;;;;20.38;76.65;100119.20;3530755;82;99055;-88
2022/09/10 15:45:05;;;;;;;3.95;1.12;;;;;;;20.20;76.72;100111.41;3536318;82;98850;-88
2022/09/10 15:50:09;;;;;;;1.50;0.98;;;;;;;20.06;76.79;100114.63;3531166;82;99062;-88
2022/09/10 15:55:12;;;;;;;3.58;1.40;;;;;;;20.03;76.68;100109.95;3531184;82;98950;-88
2022/09/10 16:00:14;;;;;;;4.53;1.30;;;;;;;19.91;76.42;100125.31;3535125;81;99225;-89
2022/09/10 16:05:15;;;;;;;1.92;1.00;;;;;;;19.88;76.51;100127.59;3514929;82;98852;-89
2022/09/10 16:10:16;;;;;;;1.82;1.10;;;;;;;19.84;76.41;100133.92;3510767;82;98885;-89
2022/09/10 16:15:18;;;;;;;1.45;0.90;;;;;;;19.69;76.43;100128.00;3508058;81;98832;-88
2022/09/10 16:20:19;;;;;;;2.45;1.30;;;;;;;19.53;76.78;100135.06;3512331;82;99029;-89
2022/09/10 16:25:20;;;;;;;2.35;1.37;;;;;;;19.38;77.00;100135.30;3529443;82;98832;-88
2022/09/10 16:30:22;;;;;;;2.30;1.00;;;;;;;19.27;77.40;100136.23;3507611;81;98939;-88
2022/09/10 16:35:25;;;;;;;1.75;1.25;;;;;;;19.16;77.63;100132.14;3502568;81;98843;-88
2022/09/10 16:40:26;;;;;;;1.70;1.22;;;;;;;19.02;78.40;100134.71;3532606;81;98963;-87
2022/09/10 16:45:28;;;;;;;1.20;1.10;;;;;;;18.90;78.54;100131.87;3488373;82;98843;-86
2022/09/10 16:50:30;;;;;;;2.92;1.30;;;;;;;18.77;78.70;100140.20;3531067;81;98944;-88
2022/09/10 16:55:31;;;;;;;2.83;1.42;;;;;;;18.60;78.96;100142.84;3525002;81;98858;-88
2022/09/10 17:00:32;;;;;;;3.33;1.53;;;;;;;18.48;79.23;100136.56;3563261;81;103844;-89
2022/09/10 17:05:33;;;;;;;1.30;1.00;;;;;;;18.38;79.48;100143.81;3563087;80;99081;-89
2022/09/10 17:10:34;;;;;;;3.17;1.20;;;;;;;18.29;79.75;100133.85;3570044;81;98900;-89
2022/09/10 17:15:36;;;;;;;3.23;1.23;;;;;;;18.19;80.10;100139.07;3555883;81;98977;-88
2022/09/10 17:20:40;;;;;;;1.87;1.15;;;;;;;18.07;80.48;100145.34;3561369;81;98961;-89
2022/09/10 17:25:41;;;;;;;4.75;1.70;;;;;;;17.97;80.88;100144.38;3571049;81;98811;-89
2022/09/10 17:30:42;;;;;;;2.67;1.80;;;;;;;17.89;81.24;100146.37;3578597;81;98970;-89
2022/09/10 17:35:47;;;;;;;6.50;2.60;;;;;;;17.81;81.61;100147.73;3568405;81;99031;-89
2022/09/10 17:41:01;;;;;;;6.80;2.67;;;;;;;17.70;81.90;100147.98;3578175;81;98972;-88
2022/09/10 17:46:09;;;;;;;4.42;2.00;;;;;;;17.60;82.54;100149.63;3568875;81;99017;-89
2022/09/10 17:51:18;;;;;;;5.95;2.80;;;;;;;17.49;82.83;100149.06;3562279;81;99129;-89
2022/09/10 17:56:21;;;;;;;6.70;3.75;;;;;;;17.39;83.31;100150.84;3555479;81;98913;-88
2022/09/10 18:01:28;;;;;;;9.03;3.40;;;;;;;17.28;84.18;100159.98;3572340;81;99034;-88
2022/09/10 18:06:31;;;;;;;7.90;4.15;;;;;;;17.20;84.38;100168.30;3553852;80;98870;-89
2022/09/10 18:11:36;;;;;;;7.67;4.25;;;;;;;17.15;84.83;100173.56;3559452;81;98959;-89
2022/09/10 18:16:37;;;;;;;9.03;4.17;;;;;;;17.09;84.89;100171.89;3561942;81;99001;-88
2022/09/10 18:21:39;;;;;;;7.72;4.05;;;;;;;17.01;85.28;100173.84;3575722;81;98819;-88
2022/09/10 18:26:45;;;;;;;8.75;4.95;;;;;;;16.97;85.55;100179.48;3574514;81;98893;-89
2022/09/10 18:31:53;;;;;;;11.68;4.17;;;;;;;16.91;85.87;100169.27;3560967;81;98826;-89
2022/09/10 18:36:57;;;;;;;9.68;5.28;;;;;;;16.82;86.22;100162.08;3548596;81;99125;-89
2022/09/10 18:41:59;;;;;;;8.40;4.20;;;;;;;16.81;86.57;100168.27;3562712;81;98990;-89
2022/09/10 18:47:00;;;;;;;8.00;4.58;;;;;;;16.79;86.68;100161.56;3575008;80;98825;-89
2022/09/10 18:52:02;;;;;;;9.10;5.47;;;;;;;16.74;86.90;100159.27;3573500;81;99088;-88
2022/09/10 18:57:04;;;;;;;10.00;4.80;;;;;;;16.74;87.03;100157.88;3561746;81;98942;-89
2022/09/10 19:02:05;;;;;;;13.22;6.65;;;;;;;16.75;87.37;100163.61;3577888;81;99141;-88
2022/09/10 19:07:08;;;;;;;10.18;5.28;;;;;;;16.73;86.99;100169.59;3562352;81;99861;-89
2022/09/10 19:12:10;;;;;;;10.70;5.40;;;;;;;16.71;87.20;100169.23;3576048;81;98922;-89
2022/09/10 19:17:11;;;;;;;8.68;4.78;;;;;;;16.71;87.44;100167.05;3567780;81;99014;-89
2022/09/10 19:22:12;;;;;;;9.15;5.37;;;;;;;16.69;87.41;100168.09;3544341;81;98853;-88
2022/09/10 19:27:13;;;;;;;11.45;5.67;;;;;;;16.64;87.89;100162.42;3552758;81;98950;-89
2022/09/10 19:32:15;;;;;;;10.68;5.87;;;;;;;16.70;88.19;100166.28;3564589;81;99522;-88
2022/09/10 19:37:17;;;;;;;10.35;6.03;;;;;;;16.70;88.33;100151.59;3562464;81;99212;-89
2022/09/10 19:42:18;;;;;;;12.63;5.95;;;;;;;16.70;88.33;100154.38;3569188;80;98999;-90
2022/09/10 19:47:21;;;;;;;12.13;5.93;;;;;;;16.70;88.53;100157.95;3566152;80;98992;-88
2022/09/10 19:52:24;;;;;;;9.75;5.35;;;;;;;16.69;88.52;100159.16;3579687;80;99090;-90
2022/09/10 19:57:25;;;;;;;10.88;5.65;;;;;;;16.68;88.51;100156.80;3568865;81;98900;-88
2022/09/10 20:02:27;;;;;;;14.00;5.73;;;;;;;16.68;88.61;100152.01;3561262;81;99200;-86
2022/09/10 20:07:29;;;;;;;10.10;5.83;;;;;;;16.67;88.62;100157.39;3584117;80;99078;-87
2022/09/10 20:12:30;;;;;;;10.53;5.30;;;;;;;16.65;88.61;100162.59;3569925;80;99116;-89
2022/09/10 20:17:33;;;;;;;13.48;6.15;;;;;;;16.64;88.67;100165.20;3549498;81;99129;-88
2022/09/10 20:22:34;;;;;;;11.80;5.87;;;;;;;16.63;88.66;100161.45;3543741;81;99127;-89
2022/09/10 20:27:35;;;;;;;10.72;5.53;;;;;;;16.63;88.86;100158.67;3568766;81;99091;-90
2022/09/10 20:32:36;;;;;;;9.95;4.92;;;;;;;16.61;88.93;100159.09;3563732;80;99010;-88
2022/09/10 20:37:38;;;;;;;10.55;4.67;;;;;;;16.61;89.13;100168.02;3554132;81;98970;-88
2022/09/10 20:42:39;;;;;;;10.40;4.63;;;;;;;16.63;89.23;100161.45;3563219;80;99085;-89
2022/09/10 20:47:41;;;;;;;9.10;4.70;;;;;;;16.64;89.14;100167.98;3544790;81;99220;-89
2022/09/10 20:52:43;;;;;;;12.20;5.87;;;;;;;16.63;89.39;100163.61;3554753;81;98822;-89
2022/09/10 20:57:44;;;;;;;9.60;5.30;;;;;;;16.63;89.38;100163.61;3560909;81;99113;-88
2022/09/10 21:02:45;;;;;;;10.50;5.13;;;;;;;16.62;89.54;100162.05;3569596;81;98944;-89
2022/09/10 21:07:48;;;;;;;11.30;5.60;;;;;;;16.62;89.60;100168.99;3546892;81;98849;-90
2022/09/10 21:12:49;;;;;;;10.20;6.33;;;;;;;16.61;89.69;100165.23;3541378;81;99063;-89
2022/09/10 21:17:50;;;;;;;10.23;5.17;;;;;;;16.62;89.71;100159.27;3561136;81;99040;-89
2022/09/10 21:22:52;;;;;;;10.33;6.00;;;;;;;16.61;89.32;100160.48;3554565;81;99019;-89
2022/09/10 21:27:53;;;;;;;12.73;6.53;;;;;;;16.60;89.52;100153.95;3574827;80;99053;-89
2022/09/10 21:32:54;;;;;;;11.28;6.28;;;;;;;16.60;89.59;100157.53;3558360;81;98971;-89
2022/09/10 21:37:55;;;;;;;10.77;5.77;;;;;;;16.58;89.89;100150.20;3585577;81;99130;-89
2022/09/10 21:42:56;;;;;;;13.32;7.58;;;;;;;16.58;89.89;100150.20;3551049;81;99025;-89
2022/09/10 21:47:57;;;;;;;15.08;8.73;;;;;;;16.59;89.71;100149.61;3556918;81;99094;-89
2022/09/10 21:52:58;;;;;;;13.93;7.72;;;;;;;16.61;89.76;100149.37;3540925;80;99083;-88
2022/09/10 21:57:59;;;;;;;13.83;7.55;;;;;;;16.61;89.91;100145.79;3560748;81;99152;-89
2022/09/10 22:03:00;;;;;;;14.35;7.62;;;;;;;16.60;89.96;100142.24;3528249;81;99007;-89
2022/09/10 22:08:02;;;;;;;11.55;7.12;;;;;;;16.59;89.95;100140.68;3552560;81;99353;-88
2022/09/10 22:13:03;;;;;;;12.82;7.33;;;;;;;16.59;89.85;100141.27;3528994;81;99357;-89
2022/09/10 22:18:04;;;;;;;11.65;7.10;;;;;;;16.58;90.05;100144.64;3528201;81;99131;-89
2022/09/10 22:23:05;;;;;;;11.07;6.23;;;;;;;16.58;90.12;100144.64;3548663;81;99214;-89
2022/09/10 22:28:06;;;;;;;12.75;7.45;;;;;;;16.56;89.82;100140.12;3544551;81;99129;-89
2022/09/10 22:33:07;;;;;;;12.10;6.70;;;;;;;16.53;90.09;100145.16;3552090;80;99097;-89
2022/09/10 22:38:08;;;;;;;11.67;6.97;;;;;;;16.54;90.11;100141.75;3533810;81;99061;-89
2022/09/10 22:43:09;;;;;;;12.57;6.93;;;;;;;16.53;90.16;100146.55;3524964;81;99227;-89
2022/09/10 22:48:10;;;;;;;13.00;7.42;;;;;;;16.51;89.92;100151.72;3532583;81;99142;-88
2022/09/10 22:53:13;;;;;;;10.50;6.33;;;;;;;16.48;90.29;100148.41;3520689;81;99068;-89
2022/09/10 22:58:14;;;;;;;12.05;5.45;;;;;;;16.48;90.18;100143.45;3532469;80;99132;-89
2022/09/10 23:03:15;;;;;;;12.43;6.92;;;;;;;16.45;90.36;100146.47;3524141;81;99697;-89
2022/09/10 23:08:16;;;;;;;13.10;7.45;;;;;;;16.47;90.60;100136.33;3516666;81;99057;-89
2022/09/10 23:13:17;;;;;;;12.07;7.00;;;;;;;16.45;90.38;100135.36;3520831;81;99203;-89
2022/09/10 23:18:18;;;;;;;11.17;5.97;;;;;;;16.44;90.59;100137.96;3528454;81;98889;-89
2022/09/10 23:23:19;;;;;;;12.53;7.08;;;;;;;16.43;90.32;100141.95;3524992;81;99084;-89
2022/09/10 23:28:19;;;;;;;13.50;7.10;;;;;;;16.39;90.60;100139.83;3533583;82;99124;-89
2022/09/10 23:33:20;;;;;;;11.65;6.17;;;;;;;16.41;90.77;100145.73;3530247;81;99217;-89
2022/09/10 23:38:21;;;;;;;11.50;6.44;;;;;;;16.40;90.50;100154.52;3531802;81;99126;-89